Time,TemperatureF,DewpointF,PressureIn,WindDirection,WindDirectionDegrees,WindSpeedMPH,WindSpeedGustMPH,Humidity,HourlyPrecipIn,Conditions,Clouds,dailyrainin,SolarRadiationWatts/m^2,SoftwareType,DateUTC
2013-08-23 00:04:00,75.5,65.8,29.94,NNW,332,1.0,7.0,72,0.00,FEW,,0.00,0.0,WeatherDisplay:10.37,2013-08-23 04:04:00,
2013-08-23 00:14:00,75.4,65.7,29.94,North,7,0.0,7.0,72,0.00,FEW,,0.00,0.0,WeatherDisplay:10.37,2013-08-23 04:14:00,
2013-08-23 00:34:00,75.1,65.1,29.94,NNW,334,2.0,7.0,71,0.00,FEW,,0.00,0.0,WeatherDisplay:10.37,2013-08-23 04:34:00,
2013-08-23 00:54:00,74.9,64.9,29.94,NW,323,1.0,7.0,71,0.00,CLR,,0.00,0.0,WeatherDisplay:10.37,2013-08-23 04:54:00,
2013-08-23 01:04:00,74.8,64.3,29.94,NW,326,0.0,3.0,70,0.00,CLR,,0.00,0.0,WeatherDisplay:10.37,2013-08-23 05:04:00,
2013-08-23 02:14:00,74.1,64.1,29.93,NNE,26,0.0,9.0,71,0.00,CLR,,0.00,0.0,WeatherDisplay:10.37,2013-08-23 06:14:00,
2013-08-23 04:44:00,70.7,64.2,29.93,ENE,65,0.0,2.0,80,0.00,FEW,,0.00,0.0,WeatherDisplay:10.37,2013-08-23 08:44:00,
2013-08-23 04:54:00,70.5,64.4,29.93,ENE,65,0.0,1.0,81,0.00,CLR,,0.00,0.0,WeatherDisplay:10.37,2013-08-23 08:54:00,
2013-08-23 05:34:00,69.5,64.1,29.94,ENE,65,0.0,1.0,83,0.00,FEW,,0.00,0.0,WeatherDisplay:10.37,2013-08-23 09:34:00,
2013-08-23 05:44:00,69.4,64.0,29.93,ENE,65,0.0,0.0,83,0.00,FEW,,0.00,0.0,WeatherDisplay:10.37,2013-08-23 09:44:00,
2013-08-23 05:54:00,69.1,64.1,29.94,ENE,65,0.0,0.0,84,0.00,SCT,,0.00,0.0,WeatherDisplay:10.37,2013-08-23 09:54:00,
2013-08-23 06:14:00,68.9,64.2,29.94,ENE,65,0.0,0.0,85,0.00,OVC,,0.00,0.0,WeatherDisplay:10.37,2013-08-23 10:14:00,
2013-08-23 06:24:00,68.9,64.5,29.94,ENE,65,0.0,0.0,86,0.00,OVC,,0.00,0.0,WeatherDisplay:10.37,2013-08-23 10:24:00,
2013-08-23 06:34:00,68.9,64.5,29.95,ENE,65,0.0,0.0,86,0.00,CLR,,0.00,7.0,WeatherDisplay:10.37,2013-08-23 10:34:00,
2013-08-23 06:44:00,68.9,64.5,29.95,ENE,65,0.0,0.0,86,0.00,BKN,,0.00,14.0,WeatherDisplay:10.37,2013-08-23 10:44:00,
2013-08-23 06:54:00,69.0,64.7,29.95,ENE,65,0.0,0.0,86,0.00,OVC,,0.00,19.0,WeatherDisplay:10.37,2013-08-23 10:54:00,
2013-08-23 07:04:00,69.2,64.8,29.95,ENE,65,0.0,0.0,86,0.00,BKN,,0.00,35.0,WeatherDisplay:10.37,2013-08-23 11:04:00,
2013-08-23 07:14:00,69.5,65.5,29.96,ENE,65,0.0,0.0,87,0.00,BKN,,0.00,46.0,WeatherDisplay:10.37,2013-08-23 11:14:00,
2013-08-23 07:24:00,69.8,65.4,29.97,ENE,65,0.0,3.0,86,0.00,BKN,,0.00,54.0,WeatherDisplay:10.37,2013-08-23 11:24:00,
2013-08-23 07:34:00,70.2,65.8,29.97,ENE,65,0.0,1.0,86,0.00,OVC,,0.00,62.0,WeatherDisplay:10.37,2013-08-23 11:34:00,
2013-08-23 07:44:00,70.8,66.4,29.97,ENE,64,0.0,3.0,86,0.00,OVC,,0.00,76.0,WeatherDisplay:10.37,2013-08-23 11:44:00,
2013-08-23 07:54:00,71.6,66.1,29.97,NE,34,2.0,8.0,83,0.00,BKN,,0.00,100.0,WeatherDisplay:10.37,2013-08-23 11:54:00,
2013-08-23 08:14:00,74.4,66.3,29.98,NNE,30,5.0,13.0,76,0.00,BKN,,0.00,148.0,WeatherDisplay:10.37,2013-08-23 12:14:00,
2013-08-23 08:24:00,75.2,66.3,29.98,NE,34,3.0,10.0,74,0.00,BKN,,0.00,192.0,WeatherDisplay:10.37,2013-08-23 12:24:00,
2013-08-23 08:54:00,75.6,65.9,29.98,NE,46,5.0,12.0,72,0.00,OVC,,0.00,144.0,WeatherDisplay:10.37,2013-08-23 12:54:00,
2013-08-23 09:04:00,75.7,66.0,29.98,NE,39,2.0,12.0,72,0.00,OVC,,0.00,178.0,WeatherDisplay:10.37,2013-08-23 13:04:00,
2013-08-23 09:34:00,76.1,66.4,29.99,NE,44,3.0,8.0,72,0.00,OVC,,0.00,206.0,WeatherDisplay:10.37,2013-08-23 13:34:00,
2013-08-23 09:54:00,76.4,65.9,29.98,NE,48,6.0,16.0,70,0.00,OVC,,0.00,211.0,WeatherDisplay:10.37,2013-08-23 13:54:00,
2013-08-23 10:04:00,76.6,65.7,29.99,NE,43,7.0,12.0,69,0.00,OVC,,0.00,207.0,WeatherDisplay:10.37,2013-08-23 14:04:00,
2013-08-23 10:14:00,76.7,64.9,29.99,ENE,66,8.0,18.0,67,0.00,OVC,,0.00,165.0,WeatherDisplay:10.37,2013-08-23 14:14:00,
2013-08-23 10:24:00,76.8,65.4,30.00,ENE,70,7.0,14.0,68,0.00,OVC,,0.00,197.0,WeatherDisplay:10.37,2013-08-23 14:24:00,
2013-08-23 10:34:00,77.0,65.2,30.00,NE,56,5.0,13.0,67,0.00,OVC,,0.00,199.0,WeatherDisplay:10.37,2013-08-23 14:34:00,
2013-08-23 10:44:00,77.1,65.3,30.01,NE,36,6.0,12.0,67,0.00,OVC,,0.00,192.0,WeatherDisplay:10.37,2013-08-23 14:44:00,
2013-08-23 10:54:00,77.2,65.4,30.01,NE,48,0.0,8.0,67,0.00,OVC,,0.00,188.0,WeatherDisplay:10.37,2013-08-23 14:54:00,
2013-08-23 11:04:00,77.3,65.5,30.02,NE,54,1.0,12.0,67,0.00,OVC,,0.00,179.0,WeatherDisplay:10.37,2013-08-23 15:04:00,
2013-08-23 11:14:00,77.2,66.2,30.02,NNE,33,1.0,7.0,69,0.00,OVC,,0.00,183.0,WeatherDisplay:10.37,2013-08-23 15:14:00,
2013-08-23 11:24:00,76.9,65.9,30.01,NE,40,5.0,13.0,69,0.00,SCT,,0.00,197.0,WeatherDisplay:10.37,2013-08-23 15:24:00,
2013-08-23 11:34:00,76.8,66.3,30.02,NNE,17,3.0,6.0,70,0.00,SCT,,0.00,208.0,WeatherDisplay:10.37,2013-08-23 15:34:00,
2013-08-23 11:44:00,76.9,66.0,30.03,NNE,31,7.0,13.0,69,0.00,SCT,,0.00,186.0,WeatherDisplay:10.37,2013-08-23 15:44:00,
2013-08-23 11:54:00,77.1,67.0,30.03,ENE,61,2.0,8.0,71,0.00,SCT,,0.00,179.0,WeatherDisplay:10.37,2013-08-23 15:54:00,
2013-08-23 12:04:00,77.0,66.0,30.03,NNE,20,6.0,10.0,69,0.00,SCT,,0.00,202.0,WeatherDisplay:10.37,2013-08-23 16:04:00,
2013-08-23 12:14:00,77.1,66.1,30.03,NNE,29,1.0,10.0,69,0.00,SCT,,0.00,202.0,WeatherDisplay:10.37,2013-08-23 16:14:00,
2013-08-23 12:24:00,77.5,67.4,30.03,NE,34,0.0,6.0,71,0.00,SCT,,0.00,237.0,WeatherDisplay:10.37,2013-08-23 16:24:00,
2013-08-23 12:34:00,77.7,67.1,30.03,NE,36,1.0,8.0,70,0.00,SCT,,0.00,294.0,WeatherDisplay:10.37,2013-08-23 16:34:00,
2013-08-23 12:44:00,77.8,67.2,30.03,NNE,30,1.0,7.0,70,0.00,SCT,,0.00,299.0,WeatherDisplay:10.37,2013-08-23 16:44:00,
2013-08-23 12:54:00,78.3,68.1,30.03,ENE,57,0.0,10.0,71,0.00,SCT,,0.00,330.0,WeatherDisplay:10.37,2013-08-23 16:54:00,
2013-08-23 13:04:00,78.1,67.1,30.03,NNE,33,2.0,9.0,69,0.00,SCT,,0.00,359.0,WeatherDisplay:10.37,2013-08-23 17:04:00,
2013-08-23 13:14:00,77.9,66.1,30.02,NNE,25,5.0,11.0,67,0.00,SCT,,0.00,371.0,WeatherDisplay:10.37,2013-08-23 17:14:00,
2013-08-23 13:24:00,78.0,65.7,30.02,NNE,13,1.0,13.0,66,0.00,SCT,,0.00,367.0,WeatherDisplay:10.37,2013-08-23 17:24:00,
2013-08-23 13:44:00,77.9,66.1,30.02,NE,54,2.0,12.0,67,0.00,OVC,,0.00,264.0,WeatherDisplay:10.37,2013-08-23 17:44:00,
2013-08-23 13:54:00,77.9,66.5,30.02,NE,52,0.0,7.0,68,0.00,OVC,,0.00,214.0,WeatherDisplay:10.37,2013-08-23 17:54:00,
2013-08-23 14:04:00,77.6,66.6,30.02,NE,38,0.0,8.0,69,0.00,OVC,,0.00,214.0,WeatherDisplay:10.37,2013-08-23 18:04:00,
2013-08-23 14:14:00,77.5,66.1,30.03,NE,52,1.0,12.0,68,0.00,OVC,,0.00,209.0,WeatherDisplay:10.37,2013-08-23 18:14:00,
2013-08-23 14:34:00,76.5,65.2,30.03,NNE,19,3.0,12.0,68,0.00,OVC,,0.00,176.0,WeatherDisplay:10.37,2013-08-23 18:34:00,
2013-08-23 14:54:00,75.4,65.8,30.02,NNE,27,1.0,7.0,72,0.00,OVC,,0.00,148.0,WeatherDisplay:10.37,2013-08-23 18:54:00,
2013-08-23 15:04:00,75.0,66.5,30.02,NNE,30,0.0,7.0,75,0.00,OVC,,0.00,195.0,WeatherDisplay:10.37,2013-08-23 19:04:00,
2013-08-23 15:14:00,75.1,65.4,30.02,NNE,31,0.0,3.0,72,0.00,SCT,,0.00,236.0,WeatherDisplay:10.37,2013-08-23 19:14:00,
2013-08-23 15:34:00,74.9,64.5,30.02,NE,43,5.0,10.0,70,0.00,SCT,,0.00,167.0,WeatherDisplay:10.37,2013-08-23 19:34:00,
2013-08-23 15:44:00,74.9,64.5,30.02,NE,50,2.0,6.0,70,0.00,SCT,,0.00,167.0,WeatherDisplay:10.37,2013-08-23 19:44:00,
2013-08-23 15:54:00,74.4,64.8,30.02,NNE,25,1.0,12.0,72,0.00,SCT,,0.00,148.0,WeatherDisplay:10.37,2013-08-23 19:54:00,
2013-08-23 16:04:00,74.3,63.9,30.02,NNE,29,3.0,13.0,70,0.00,SCT,,0.00,125.0,WeatherDisplay:10.37,2013-08-23 20:04:00,
2013-08-23 16:14:00,74.5,64.9,30.02,NNE,29,0.0,7.0,72,0.00,SCT,,0.00,127.0,WeatherDisplay:10.37,2013-08-23 20:14:00,
2013-08-23 16:34:00,74.3,63.1,30.02,NE,38,3.0,8.0,68,0.00,FEW,,0.00,109.0,WeatherDisplay:10.37,2013-08-23 20:34:00,
2013-08-23 16:44:00,74.0,61.5,30.02,NNE,25,6.0,15.0,65,0.00,FEW,,0.00,107.0,WeatherDisplay:10.37,2013-08-23 20:44:00,
2013-08-23 16:54:00,73.6,60.2,30.03,NNE,24,6.0,15.0,63,0.00,FEW,,0.00,83.0,WeatherDisplay:10.37,2013-08-23 20:54:00,
2013-08-23 17:04:00,73.3,58.6,30.03,NNE,30,5.0,15.0,60,0.00,FEW,,0.00,86.0,WeatherDisplay:10.37,2013-08-23 21:04:00,
2013-08-23 17:14:00,73.0,59.2,30.03,NNE,31,0.0,6.0,62,0.00,FEW,,0.00,65.0,WeatherDisplay:10.37,2013-08-23 21:14:00,
2013-08-23 17:24:00,72.5,59.6,30.03,NNE,26,1.0,6.0,64,0.00,SCT,,0.00,69.0,WeatherDisplay:10.37,2013-08-23 21:24:00,
2013-08-23 17:34:00,72.1,60.1,30.03,NE,34,1.0,7.0,66,0.00,SCT,,0.00,79.0,WeatherDisplay:10.37,2013-08-23 21:34:00,
2013-08-23 17:54:00,70.0,61.7,30.03,NE,39,0.0,1.0,75,0.01,RA,,0.01,74.0,WeatherDisplay:10.37,2013-08-23 21:54:00,
2013-08-23 18:04:00,69.1,61.6,30.03,NE,39,0.0,1.0,77,0.00,SCT,,0.01,81.0,WeatherDisplay:10.37,2013-08-23 22:04:00,
2013-08-23 18:34:00,69.1,61.2,30.03,NE,39,0.0,0.0,76,0.00,BKN,,0.01,79.0,WeatherDisplay:10.37,2013-08-23 22:34:00,
2013-08-23 18:44:00,69.3,61.8,30.03,NE,39,0.0,0.0,77,0.00,BKN,,0.01,60.0,WeatherDisplay:10.37,2013-08-23 22:44:00,
2013-08-23 18:54:00,69.5,61.2,30.03,NE,39,0.0,1.0,75,0.00,BKN,,0.01,95.0,WeatherDisplay:10.37,2013-08-23 22:54:00,
2013-08-23 19:14:00,69.7,61.4,30.03,NE,41,0.0,0.0,75,0.00,CLR,,0.01,47.0,WeatherDisplay:10.37,2013-08-23 23:14:00,
2013-08-23 19:44:00,68.8,61.7,30.03,NE,38,0.0,3.0,78,0.00,BKN,,0.01,11.0,WeatherDisplay:10.37,2013-08-23 23:44:00,
2013-08-23 19:54:00,68.5,62.1,30.04,NE,39,0.0,3.0,80,0.00,BKN,,0.01,5.0,WeatherDisplay:10.37,2013-08-23 23:54:00,
2013-08-23 20:14:00,67.8,62.1,30.04,NE,39,0.0,0.0,82,0.00,CLR,,0.01,0.0,WeatherDisplay:10.37,2013-08-24 00:14:00,
2013-08-23 20:24:00,67.4,62.1,30.05,NE,39,0.0,1.0,83,0.00,FEW,,0.01,0.0,WeatherDisplay:10.37,2013-08-24 00:24:00,
2013-08-23 20:44:00,66.7,61.7,30.06,NE,39,0.0,0.0,84,0.00,CLR,,0.01,0.0,WeatherDisplay:10.37,2013-08-24 00:44:00,
2013-08-23 20:54:00,66.3,62.0,30.06,NE,39,0.0,0.0,86,0.00,CLR,,0.01,0.0,WeatherDisplay:10.37,2013-08-24 00:54:00,
2013-08-23 21:04:00,65.9,61.9,30.07,NE,39,0.0,0.0,87,0.00,CLR,,0.01,0.0,WeatherDisplay:10.37,2013-08-24 01:04:00,
2013-08-23 21:14:00,65.6,61.6,30.07,NE,39,0.0,0.0,87,0.00,CLR,,0.01,0.0,WeatherDisplay:10.37,2013-08-24 01:14:00,
2013-08-23 21:24:00,65.3,61.3,30.07,NE,40,0.0,0.0,87,0.00,CLR,,0.01,0.0,WeatherDisplay:10.37,2013-08-24 01:24:00,
2013-08-23 21:44:00,64.8,60.9,30.08,NE,39,0.0,0.0,87,0.00,CLR,,0.01,0.0,WeatherDisplay:10.37,2013-08-24 01:44:00,
2013-08-23 21:54:00,64.6,61.0,30.08,NE,39,0.0,0.0,88,0.00,CLR,,0.01,0.0,WeatherDisplay:10.37,2013-08-24 01:54:00,
2013-08-23 22:04:00,64.4,60.8,30.08,NE,39,0.0,0.0,88,0.00,CLR,,0.01,0.0,WeatherDisplay:10.37,2013-08-24 02:04:00,
2013-08-23 22:14:00,64.2,60.6,30.08,NE,39,0.0,0.0,88,0.00,CLR,,0.01,0.0,WeatherDisplay:10.37,2013-08-24 02:14:00,
2013-08-23 22:24:00,64.0,60.4,30.08,NE,39,0.0,0.0,88,0.00,CLR,,0.01,0.0,WeatherDisplay:10.37,2013-08-24 02:24:00,
2013-08-23 22:34:00,63.9,60.6,30.08,NE,39,0.0,0.0,89,0.00,CLR,,0.01,0.0,WeatherDisplay:10.37,2013-08-24 02:34:00,
2013-08-23 22:44:00,63.7,60.4,30.09,NE,39,0.0,0.0,89,0.00,CLR,,0.01,0.0,WeatherDisplay:10.37,2013-08-24 02:44:00,
2013-08-23 22:54:00,63.6,60.3,30.09,NE,39,0.0,0.0,89,0.00,CLR,,0.01,0.0,WeatherDisplay:10.37,2013-08-24 02:54:00,
2013-08-23 23:04:00,63.4,60.1,30.08,NE,40,0.0,0.0,89,0.00,CLR,,0.01,0.0,WeatherDisplay:10.37,2013-08-24 03:04:00,
2013-08-23 23:34:00,63.1,59.8,30.10,NE,39,0.0,0.0,89,0.00,CLR,,0.01,0.0,WeatherDisplay:10.37,2013-08-24 03:34:00,
2013-08-23 23:44:00,63.0,59.7,30.10,NE,39,0.0,0.0,89,0.00,CLR,,0.01,0.0,WeatherDisplay:10.37,2013-08-24 03:44:00,
2013-08-23 23:54:00,62.9,59.6,30.10,NE,39,0.0,0.0,89,0.00,CLR,,0.01,0.0,WeatherDisplay:10.37,2013-08-24 03:54:00,